Karratha King Bay, Australia
Current Conditions -  °F | °C
As of 8:00 PM on Tuesday 27 Jan 2015 (Local Time) from YPPD Reporting Station
Clear Clear  
Wind Chill: 81°   Ceiling: Unl
Heat Index: 85°   Visibility: 6mi
Dew Point: 72°   Wind: 14mph
Humidity: 74%   Direction: 310°NW
Pressure: 29.68"   Gusts: NA
Location:  20.62°S, 116.75°E
Report Text: YPPD 271200Z AUTO 31012KT 9999 // NCD 27/22 Q1005
Loading
Personal Weather Stations






























Interactive Weather Map New forecast layout! Learn more

10-Day Weather Forecast

Advertisements
Track Severe Weather on mobile